Huvudsida
METAR-TAF:

METAR-TAF

Flygplatser :

Taubaté, São Paulo, Brasilien

latitud: 23-02-26S, longitud: 45-31-00W, höjd: 577 m

Aktuellt väderrapport

Denna rapport gjordes för 50 minuter sedan, klockan 20:00 UTC
Vind 3 kt från nordost, varierande mellan nord och ost/nordost
Temperatur 22°C
Fuktighet 46%
Tryck 1019 hPa
Sikt 10 km eller mer
Inga moln under 1 500 m eller inga cumulonimbus

METAR: SBTA 292000Z 04003KT 360V070 CAVOK 22/10 Q1019

Tid: 17:50 (20:50 UTC)


TAF: saknas

Aktuella väderrapporter och prognoser från 4000 flygplatser (METAR- och TAF-rapporter).

De tillgängliga stationerna syns som gula och röda prickar på kartan.

För musen över prickarna för att se namnen på stationerna.

Klicka sedan för att få väderrapporter och prognoser.

För att ändra kartan: Klicka på de gröna knapparna med ett svart kors på för att zooma in; den gröna knappen med ett streck på för att zooma ut; eller på de gröna pilarna för angränsande kartor.


METAR-TAF: